Time,TemperatureF,DewpointF,PressureIn,WindDirection,WindDirectionDegrees,WindSpeedMPH,WindSpeedGustMPH,Humidity,HourlyPrecipIn,Conditions,Clouds,dailyrainin,SoftwareType,DateUTC
2013-11-13 00:13:00,31.0,14.0,30.36,NW,321,6.0,-999.0,48,-99.99,,,-99.99,,2013-11-13 05:13:00,
2013-11-13 00:23:00,31.0,14.0,30.36,NW,304,2.0,-999.0,49,-99.99,,,-99.99,,2013-11-13 05:23:00,
2013-11-13 00:53:00,31.0,14.0,30.36,NW,313,7.0,-999.0,49,-99.99,,,-99.99,,2013-11-13 05:53:00,
2013-11-13 01:22:00,30.0,13.0,30.35,NW,322,5.0,-999.0,49,-99.99,,,-99.99,,2013-11-13 06:22:00,
2013-11-13 01:42:00,30.0,13.0,30.36,WNW,303,7.0,-999.0,49,-99.99,,,-99.99,,2013-11-13 06:42:00,
2013-11-13 01:52:00,30.0,13.0,30.36,NW,311,7.0,-999.0,49,-99.99,,,-99.99,,2013-11-13 06:52:00,
2013-11-13 02:22:00,30.0,13.0,30.36,NW,311,4.0,-999.0,49,-99.99,,,-99.99,,2013-11-13 07:22:00,
2013-11-13 02:42:00,30.0,13.0,30.36,NW,319,7.0,-999.0,49,-99.99,,,-99.99,,2013-11-13 07:42:00,
2013-11-13 02:52:00,30.0,13.0,30.36,NW,310,4.0,-999.0,49,-99.99,,,-99.99,,2013-11-13 07:52:00,
2013-11-13 03:22:00,30.0,13.0,30.36,NW,307,6.0,-999.0,49,-99.99,,,-99.99,,2013-11-13 08:22:00,
2013-11-13 03:42:00,29.0,12.0,30.36,WNW,302,6.0,-999.0,49,-99.99,,,-99.99,,2013-11-13 08:42:00,
2013-11-13 03:52:00,29.0,12.0,30.36,NW,308,7.0,-999.0,49,-99.99,,,-99.99,,2013-11-13 08:52:00,
2013-11-13 04:21:00,29.0,12.0,30.37,WNW,296,6.0,-999.0,49,-99.99,,,-99.99,,2013-11-13 09:21:00,
2013-11-13 04:43:00,29.0,12.0,30.37,NW,310,7.0,-999.0,49,-99.99,,,-99.99,,2013-11-13 09:43:00,
2013-11-13 04:52:00,29.0,12.0,30.37,NW,304,5.0,-999.0,49,-99.99,,,-99.99,,2013-11-13 09:52:00,
2013-11-13 05:23:00,29.0,12.0,30.38,WNW,298,6.0,-999.0,49,-99.99,,,-99.99,,2013-11-13 10:23:00,
2013-11-13 05:42:00,29.0,13.0,30.38,NW,310,3.0,-999.0,50,-99.99,,,-99.99,,2013-11-13 10:42:00,
2013-11-13 05:52:00,28.0,12.0,30.39,NW,312,5.0,-999.0,50,-99.99,,,-99.99,,2013-11-13 10:52:00,
2013-11-13 06:22:00,28.0,12.0,30.40,NW,314,8.0,-999.0,51,-99.99,,,-99.99,,2013-11-13 11:22:00,
2013-11-13 06:42:00,28.0,12.0,30.40,NW,306,3.0,-999.0,50,-99.99,,,-99.99,,2013-11-13 11:42:00,
2013-11-13 06:52:00,28.0,12.0,30.40,NW,310,5.0,-999.0,50,-99.99,,,-99.99,,2013-11-13 11:52:00,
2013-11-13 07:22:00,28.0,11.0,30.42,NNW,340,3.0,-999.0,48,-99.99,,,-99.99,,2013-11-13 12:22:00,
2013-11-13 07:42:00,28.0,11.0,30.42,NW,309,4.0,-999.0,49,-99.99,,,-99.99,,2013-11-13 12:42:00,
2013-11-13 07:52:00,29.0,11.0,30.43,NW,317,1.0,-999.0,47,-99.99,,,-99.99,,2013-11-13 12:52:00,
2013-11-13 08:22:00,29.0,10.0,30.44,NNW,329,6.0,-999.0,44,-99.99,,,-99.99,,2013-11-13 13:22:00,
2013-11-13 08:42:00,29.0,9.0,30.45,NW,314,15.0,-999.0,42,-99.99,,,-99.99,,2013-11-13 13:42:00,
2013-11-13 08:52:00,29.0,9.0,30.45,NW,325,10.0,-999.0,42,-99.99,,,-99.99,,2013-11-13 13:52:00,
2013-11-13 09:22:00,30.0,8.0,30.45,NW,325,5.0,-999.0,39,-99.99,,,-99.99,,2013-11-13 14:22:00,
2013-11-13 09:42:00,31.0,8.0,30.45,NNW,329,4.0,-999.0,37,-99.99,,,-99.99,,2013-11-13 14:42:00,
2013-11-13 09:52:00,31.0,7.0,30.45,WNW,297,8.0,-999.0,35,-99.99,,,-99.99,,2013-11-13 14:52:00,
2013-11-13 10:22:00,32.0,6.0,30.45,NW,326,15.0,-999.0,33,-99.99,,,-99.99,,2013-11-13 15:22:00,
2013-11-13 10:43:00,32.0,6.0,30.44,NW,325,13.0,-999.0,33,-99.99,,,-99.99,,2013-11-13 15:43:00,
2013-11-13 10:53:00,33.0,7.0,30.44,NW,311,4.0,-999.0,33,-99.99,,,-99.99,,2013-11-13 15:53:00,
2013-11-13 11:23:00,34.0,8.0,30.43,WNW,288,10.0,-999.0,33,-99.99,,,-99.99,,2013-11-13 16:23:00,
2013-11-13 11:43:00,34.0,7.0,30.42,NW,323,7.0,-999.0,32,-99.99,,,-99.99,,2013-11-13 16:43:00,
2013-11-13 11:52:00,34.0,7.0,30.42,West,268,6.0,-999.0,32,-99.99,,,-99.99,,2013-11-13 16:52:00,
2013-11-13 12:23:00,35.0,4.0,30.41,NW,316,9.0,-999.0,27,-99.99,,,-99.99,,2013-11-13 17:23:00,
2013-11-13 12:52:00,36.0,5.0,30.41,West,277,8.0,-999.0,27,-99.99,,,-99.99,,2013-11-13 17:52:00,
2013-11-13 13:23:00,37.0,4.0,30.41,NW,321,9.0,-999.0,24,-99.99,,,-99.99,,2013-11-13 18:23:00,
2013-11-13 13:42:00,38.0,4.0,30.40,NW,318,6.0,-999.0,23,-99.99,,,-99.99,,2013-11-13 18:42:00,
2013-11-13 13:52:00,38.0,4.0,30.40,NW,306,11.0,-999.0,24,-99.99,,,-99.99,,2013-11-13 18:52:00,
2013-11-13 14:21:00,38.0,3.0,30.39,NNW,338,9.0,-999.0,22,-99.99,,,-99.99,,2013-11-13 19:21:00,
2013-11-13 14:52:00,38.0,4.0,30.39,WNW,295,7.0,-999.0,23,-99.99,,,-99.99,,2013-11-13 19:52:00,
2013-11-13 15:22:00,39.0,4.0,30.40,NW,315,5.0,-999.0,23,-99.99,,,-99.99,,2013-11-13 20:22:00,
2013-11-13 15:52:00,40.0,6.0,30.40,WNW,287,17.0,-999.0,24,-99.99,,,-99.99,,2013-11-13 20:52:00,
2013-11-13 16:22:00,38.0,5.0,30.40,NW,317,8.0,-999.0,25,-99.99,,,-99.99,,2013-11-13 21:22:00,
2013-11-13 16:43:00,39.0,8.0,30.40,West,274,4.0,-999.0,27,-99.99,,,-99.99,,2013-11-13 21:43:00,
2013-11-13 16:53:00,38.0,7.0,30.40,NW,307,7.0,-999.0,27,-99.99,,,-99.99,,2013-11-13 21:53:00,
2013-11-13 17:23:00,39.0,8.0,30.41,West,277,4.0,-999.0,27,-99.99,,,-99.99,,2013-11-13 22:23:00,
2013-11-13 17:42:00,41.0,10.0,30.41,West,266,3.0,-999.0,27,-99.99,,,-99.99,,2013-11-13 22:42:00,
2013-11-13 17:53:00,40.0,9.0,30.41,West,266,3.0,-999.0,27,-99.99,,,-99.99,,2013-11-13 22:53:00,
2013-11-13 18:22:00,40.0,10.0,30.43,West,266,3.0,-999.0,28,-99.99,,,-99.99,,2013-11-13 23:22:00,
2013-11-13 18:43:00,39.0,9.0,30.43,West,266,6.0,-999.0,29,-99.99,,,-99.99,,2013-11-13 23:43:00,
2013-11-13 18:52:00,39.0,10.0,30.43,West,266,3.0,-999.0,30,-99.99,,,-99.99,,2013-11-13 23:52:00,
2013-11-13 19:22:00,40.0,11.0,30.42,West,266,3.0,-999.0,30,-99.99,,,-99.99,,2013-11-14 00:22:00,
2013-11-13 19:52:00,40.0,12.0,30.42,West,266,3.0,-999.0,31,-99.99,,,-99.99,,2013-11-14 00:52:00,
2013-11-13 20:22:00,39.0,12.0,30.42,West,266,3.0,-999.0,33,-99.99,,,-99.99,,2013-11-14 01:22:00,
2013-11-13 20:42:00,38.0,11.0,30.42,West,266,3.0,-999.0,33,-99.99,,,-99.99,,2013-11-14 01:42:00,
2013-11-13 20:52:00,39.0,13.0,30.42,West,266,1.0,-999.0,34,-99.99,,,-99.99,,2013-11-14 01:52:00,
2013-11-13 21:22:00,37.0,12.0,30.41,WSW,258,3.0,-999.0,35,-99.99,,,-99.99,,2013-11-14 02:22:00,
2013-11-13 22:21:00,36.0,13.0,30.40,WSW,244,3.0,-999.0,38,-99.99,,,-99.99,,2013-11-14 03:21:00,
2013-11-13 22:44:00,36.0,13.0,30.39,WSW,239,8.0,-999.0,38,-99.99,,,-99.99,,2013-11-14 03:44:00,
2013-11-13 22:54:00,36.0,14.0,30.39,WSW,241,3.0,-999.0,40,-99.99,,,-99.99,,2013-11-14 03:54:00,
2013-11-13 23:24:00,37.0,14.0,30.38,SW,233,5.0,-999.0,39,-99.99,,,-99.99,,2013-11-14 04:24:00,
2013-11-13 23:54:00,37.0,15.0,30.36,SW,234,6.0,-999.0,40,-99.99,,,-99.99,,2013-11-14 04:54:00,